Flight Track Log - Related Links

Times and Time Zones

All times are in EDT time to prevent confusion due to time zone crossing. See the CPT8773 flight status page for this flight to view local times or setup timezone preferences in your user account.

Time Position Orientation Groundspeed Altitude Reporting Facility
EDT Latitude Longitude Course Direction KTS MPH feet Rate Location/Type
Mon 09:07:08 AM 42.9914 -106.5353 308° West 108 124 8,700  Level Denver Center
Mon 09:08:09 AM 43.0208 -106.5433 349° North 110 127 9,200 492 Climbing Denver Center
Mon 09:09:10 AM 43.0508 -106.5519 348° North 112 129 9,700 443 Climbing Denver Center
Mon 09:10:00 AM 43.0485 -106.3015 36° Northeast  Level FlightAware Approximate
Mon 09:10:11 AM 43.0886 -106.5617 349° North 117 135 10,100  Level Denver Center
Mon 09:11:00 AM 43.0782 -106.2718 36° Northeast  Level FlightAware Approximate
Mon 09:11:12 AM 43.1217 -106.5700 350° North 124 143 10,600  Level Denver Center
Mon 09:12:00 AM 43.1021 -106.2995 308° West  Level FlightAware Approximate
Mon 09:12:13 AM 43.1597 -106.5789 350° North 126 145 11,100  Level Denver Center
Mon 09:13:14 AM 43.1908 -106.5878 348° North 121 139 11,500 393 Climbing Denver Center
Mon 09:14:15 AM 43.2236 -106.5969 348° North 124 143 11,900 295 Climbing Denver Center
Mon 09:15:16 AM 43.2661 -106.6053 352° North 134 154 12,100 98 Climbing Denver Center
Mon 09:16:17 AM 43.2911 -106.6347 319° Northwest 136 157 12,100  Level Denver Center
Mon 09:17:18 AM 43.3033 -106.6828 289° West 139 160 12,100  Level Denver Center
Mon 09:18:20 AM 43.3325 -106.7306 310° West 144 166 12,100  Level Denver Center
Mon 09:19:21 AM 43.3514 -106.7753 300° West 142 163 12,100  Level Denver Center
Mon 09:20:22 AM 43.3750 -106.8169 308° West 144 166 12,100  Level Denver Center
Mon 09:21:23 AM 43.4011 -106.8667 306° West 143 165 12,100  Level Denver Center
Mon 09:22:24 AM 43.4242 -106.9111 306° West 142 163 12,100  Level Denver Center
Mon 09:23:25 AM 43.4481 -106.9528 308° West 144 166 12,100 -94 Level Denver Center
Mon 09:24:32 AM 43.4717 -107.0053 302° West 143 165 11,900 -47 Descending Salt Lake Center
Mon 09:25:33 AM 43.4956 -107.0536 304° West 138 159 12,000 49 Climbing Salt Lake Center
Mon 09:26:34 AM 43.5181 -107.0983 305° West 146 168 12,000  Level Salt Lake Center
Mon 09:27:30 AM 43.5442 -107.1389 312° West 148 170 12,000  Level Denver Center
Mon 09:28:31 AM 43.5658 -107.1831 304° West 147 169 12,000  Level Denver Center
Mon 09:29:32 AM 43.5831 -107.2156 306° West 136 157 12,000 49 Level Denver Center
Mon 09:30:33 AM 43.6111 -107.2703 305° West 135 155 12,100 49 Climbing Denver Center
Mon 09:31:34 AM 43.6336 -107.3125 306° West 141 162 12,100 -47 Level Denver Center
Mon 09:32:40 AM 43.6583 -107.3625 304° West 140 161 12,000 -47 Descending Salt Lake Center
Mon 09:33:41 AM 43.6808 -107.4025 308° West 139 160 12,000 -49 Level Salt Lake Center
Mon 09:34:42 AM 43.7061 -107.4508 306° West 138 159 11,900  Descending Salt Lake Center
Mon 09:35:43 AM 43.7267 -107.4886 307° West 135 155 12,000 49 Climbing Salt Lake Center
Mon 09:36:44 AM 43.7483 -107.5342 303° West 130 150 12,000  Level Salt Lake Center
Mon 09:37:46 AM 43.7689 -107.5742 305° West 130 150 12,000 -49 Level Salt Lake Center
Mon 09:38:47 AM 43.7903 -107.6122 308° West 131 151 11,900  Descending Salt Lake Center
Mon 09:39:48 AM 43.8142 -107.6572 306° West 130 150 12,000 49 Climbing Salt Lake Center
Mon 09:40:49 AM 43.8344 -107.6978 305° West 131 151 12,000  Level Salt Lake Center
Mon 09:41:50 AM 43.8556 -107.7394 305° West 134 154 12,000  Level Salt Lake Center
Mon 09:42:51 AM 43.8811 -107.7875 306° West 137 158 12,000  Level Salt Lake Center
Mon 09:43:53 AM 43.9042 -107.8281 308° West 138 159 12,000 -49 Level Salt Lake Center
Mon 09:44:54 AM 43.9258 -107.8694 306° West 138 159 11,900  Descending Salt Lake Center
Mon 09:45:55 AM 43.9503 -107.9164 306° West 137 158 12,000 49 Climbing Salt Lake Center
Mon 09:46:56 AM 43.9708 -107.9581 304° West 136 157 12,000  Level Salt Lake Center
Mon 09:47:58 AM 43.9958 -108.0056 306° West 136 157 12,000 49 Level Salt Lake Center
Mon 09:48:59 AM 44.0172 -108.0458 306° West 136 157 12,100 49 Climbing Salt Lake Center
Mon 09:50:00 AM 44.0389 -108.0867 306° West 136 157 12,100  Level Salt Lake Center
Mon 09:51:01 AM 44.0628 -108.1344 305° West 136 157 12,100  Level Salt Lake Center
Mon 09:52:03 AM 44.0847 -108.1753 307° West 136 157 12,100  Level Salt Lake Center
Mon 09:53:04 AM 44.1097 -108.2233 306° West 137 158 12,100  Level Salt Lake Center
Mon 09:54:06 AM 44.1308 -108.2647 305° West 137 158 12,100  Level Salt Lake Center
Mon 09:55:07 AM 44.1522 -108.3064 306° West 137 158 12,100  Level Salt Lake Center
Mon 09:56:08 AM 44.1775 -108.3547 306° West 138 159 12,100 -49 Level Salt Lake Center
Mon 09:57:10 AM 44.1983 -108.3953 306° West 136 157 12,000  Descending Salt Lake Center
Mon 09:58:11 AM 44.2189 -108.4364 305° West 136 157 12,100 49 Climbing Salt Lake Center
Mon 09:59:13 AM 44.2439 -108.4842 306° West 136 157 12,100 -98 Level Salt Lake Center
Mon 10:00:14 AM 44.2653 -108.5264 305° West 137 158 11,900 -341 Descending Salt Lake Center
Mon 10:01:16 AM 44.2933 -108.5783 307° West 142 163 11,400 -488 Descending Salt Lake Center
Mon 10:02:17 AM 44.3186 -108.6267 306° West 151 174 10,900 -492 Descending Salt Lake Center

Login

Don't have an account? Register now (free) for customized features, flight alerts, and more!